Time;durP1;ratioP1;P1;durP2;ratioP2;P2;SDS_P1;SDS_P2;PMS_P1;PMS_P2;Temp;Humidity;BMP_temperature;BMP_pressure;BME280_temperature;BME280_humidity;BME280_pressure;Samples;Min_cycle;Max_cycle;Signal;HPM_P1;HPM_P2
2022/10/29 00:00:42;;;;;;;11.33;4.93;;;13.70;99.90;;;;;;5062005;28;21131;-75
2022/10/29 00:03:28;;;;;;;16.77;5.20;;;13.70;99.90;;;;;;5066096;28;20454;-75
2022/10/29 00:06:15;;;;;;;16.57;6.20;;;13.70;99.90;;;;;;5066361;28;20446;-74
2022/10/29 00:09:01;;;;;;;19.87;6.13;;;13.70;99.90;;;;;;5057223;28;21090;-74
2022/10/29 00:11:47;;;;;;;13.80;5.10;;;13.70;99.90;;;;;;5070966;28;20478;-75
2022/10/29 00:14:32;;;;;;;10.13;5.23;;;13.80;99.90;;;;;;5063331;28;20446;-76
2022/10/29 00:17:18;;;;;;;17.03;6.23;;;13.70;99.90;;;;;;5066965;28;20943;-75
2022/10/29 00:20:05;;;;;;;9.63;4.80;;;13.60;99.90;;;;;;5064010;28;20473;-74
2022/10/29 00:22:54;;;;;;;15.50;7.67;;;13.50;99.90;;;;;;5068163;28;20503;-75
2022/10/29 00:25:40;;;;;;;13.80;5.63;;;13.50;99.90;;;;;;5070909;28;20442;-75
2022/10/29 00:28:26;;;;;;;10.33;7.00;;;13.40;99.90;;;;;;5072362;28;20768;-75
2022/10/29 00:31:14;;;;;;;20.37;7.00;;;13.40;99.90;;;;;;5066245;28;20485;-75
2022/10/29 00:34:00;;;;;;;19.23;6.53;;;13.20;99.90;;;;;;5072432;28;20914;-75
2022/10/29 00:36:46;;;;;;;11.63;5.77;;;13.20;99.90;;;;;;5071703;28;20561;-75
2022/10/29 00:39:33;;;;;;;14.30;5.43;;;13.20;99.90;;;;;;5072168;28;20393;-75
2022/10/29 00:42:19;;;;;;;17.97;6.63;;;13.20;99.90;;;;;;5070757;28;20931;-75
2022/10/29 00:45:06;;;;;;;12.27;6.10;;;13.10;99.90;;;;;;5072309;28;20401;-75
2022/10/29 00:47:53;;;;;;;17.77;5.80;;;13.10;99.90;;;;;;5072600;28;20431;-75
2022/10/29 00:50:38;;;;;;;8.50;5.80;;;13.10;99.90;;;;;;5055469;28;20457;-73
2022/10/29 00:53:28;;;;;;;19.10;7.43;;;13.20;99.90;;;;;;5072183;28;20599;-75
2022/10/29 00:56:16;;;;;;;12.90;6.40;;;13.20;99.90;;;;;;5063908;28;20397;-75
2022/10/29 00:59:02;;;;;;;9.80;5.93;;;13.30;99.90;;;;;;5072966;28;20393;-75
2022/10/29 01:01:49;;;;;;;12.50;5.63;;;13.30;99.90;;;;;;5070636;28;20482;-75
2022/10/29 01:04:36;;;;;;;11.97;6.33;;;13.20;99.90;;;;;;5072387;28;20396;-74
2022/10/29 01:07:22;;;;;;;16.13;6.37;;;13.30;99.90;;;;;;5072955;28;20503;-74
2022/10/29 01:10:10;;;;;;;16.20;5.70;;;13.30;99.90;;;;;;5069918;28;20439;-75
2022/10/29 01:13:13;;;;;;;8.23;5.80;;;13.20;99.90;;;;;;5052521;28;20497;-75
2022/10/29 01:16:05;;;;;;;19.43;5.90;;;13.20;99.90;;;;;;5065751;28;20871;-75
2022/10/29 01:19:01;;;;;;;14.33;6.63;;;13.20;99.90;;;;;;5052144;28;20464;-75
2022/10/29 01:21:51;;;;;;;12.33;6.20;;;13.20;99.90;;;;;;5060123;28;20499;-75
2022/10/29 01:25:21;;;;;;;10.70;5.93;;;13.30;99.90;;;;;;5066961;28;20416;-75
2022/10/29 01:28:21;;;;;;;9.57;5.27;;;13.40;99.90;;;;;;5059220;28;20441;-75
2022/10/29 01:31:18;;;;;;;13.80;5.77;;;13.50;99.90;;;;;;5066324;28;20465;-75
2022/10/29 01:34:11;;;;;;;18.83;6.17;;;13.40;99.90;;;;;;5073374;28;20397;-74
2022/10/29 01:36:59;;;;;;;10.17;5.97;;;13.30;99.90;;;;;;5075313;28;21006;-75
2022/10/29 01:39:54;;;;;;;13.63;6.83;;;13.40;99.90;;;;;;5074360;28;20422;-74
2022/10/29 01:42:45;;;;;;;12.40;6.93;;;13.40;99.90;;;;;;5055981;28;20555;-75
2022/10/29 01:45:36;;;;;;;14.67;5.87;;;13.50;99.90;;;;;;5066580;28;20448;-74
2022/10/29 01:48:30;;;;;;;10.43;6.60;;;13.60;99.90;;;;;;5075886;28;20393;-75
2022/10/29 01:51:21;;;;;;;21.33;5.70;;;13.60;99.90;;;;;;5072296;28;20440;-75
2022/10/29 01:54:09;;;;;;;14.40;7.20;;;13.70;99.90;;;;;;5068965;28;20405;-74
2022/10/29 01:56:56;;;;;;;20.13;6.30;;;13.60;99.90;;;;;;5075050;28;20419;-75
2022/10/29 01:59:42;;;;;;;13.50;5.50;;;13.40;99.90;;;;;;5073026;28;20534;-75
2022/10/29 02:02:39;;;;;;;11.70;5.50;;;13.30;99.90;;;;;;5064188;28;20436;-75
2022/10/29 02:05:33;;;;;;;10.93;6.17;;;13.30;99.90;;;;;;5075317;28;20427;-74
2022/10/29 02:08:25;;;;;;;11.60;5.60;;;13.30;99.90;;;;;;5054958;28;20424;-75
2022/10/29 02:11:17;;;;;;;13.70;5.57;;;13.30;99.90;;;;;;5058714;28;20558;-75
2022/10/29 02:14:09;;;;;;;21.30;5.97;;;13.30;99.90;;;;;;5055166;28;20432;-75
2022/10/29 02:16:56;;;;;;;14.93;6.70;;;13.30;99.90;;;;;;5055334;28;20395;-75
2022/10/29 02:19:42;;;;;;;14.17;8.00;;;13.30;99.90;;;;;;5065186;28;20520;-75
2022/10/29 02:22:29;;;;;;;11.40;6.60;;;13.30;99.90;;;;;;5072566;28;20444;-73
2022/10/29 02:25:14;;;;;;;18.80;5.50;;;13.30;99.90;;;;;;5071041;28;20412;-75
2022/10/29 02:28:00;;;;;;;13.03;7.47;;;13.30;99.90;;;;;;5071185;28;20460;-75
2022/10/29 02:30:46;;;;;;;14.03;5.60;;;13.30;99.90;;;;;;5071703;28;20470;-75
2022/10/29 02:33:31;;;;;;;14.73;5.53;;;13.30;99.90;;;;;;5073564;28;20443;-75
2022/10/29 02:36:17;;;;;;;11.57;5.33;;;13.20;99.90;;;;;;5072469;28;20497;-76
2022/10/29 02:39:04;;;;;;;14.23;5.83;;;13.20;99.90;;;;;;5068513;28;20416;-75
2022/10/29 02:41:50;;;;;;;9.60;6.07;;;13.20;99.90;;;;;;5059425;28;20441;-74
2022/10/29 02:44:36;;;;;;;9.80;5.30;;;13.20;99.90;;;;;;5071757;28;20445;-75
2022/10/29 02:47:21;;;;;;;15.23;5.80;;;13.10;99.90;;;;;;5070308;28;20447;-74
2022/10/29 02:50:08;;;;;;;13.80;4.77;;;13.10;99.90;;;;;;5065766;28;20417;-75
2022/10/29 02:52:54;;;;;;;13.30;5.60;;;13.10;99.90;;;;;;5061954;28;20422;-75
2022/10/29 02:55:42;;;;;;;17.13;5.40;;;13.10;99.90;;;;;;5066483;28;20447;-75
2022/10/29 02:58:28;;;;;;;12.43;5.27;;;13.10;99.90;;;;;;5063706;28;20447;-74
2022/10/29 03:01:13;;;;;;;8.07;4.27;;;13.10;99.90;;;;;;5066194;28;20480;-75
2022/10/29 03:03:59;;;;;;;9.73;5.20;;;13.00;99.90;;;;;;5073451;28;20904;-75
2022/10/29 03:06:45;;;;;;;11.83;5.20;;;13.00;99.90;;;;;;5067758;28;20452;-75
2022/10/29 03:09:31;;;;;;;13.80;6.00;;;12.90;99.90;;;;;;5066289;28;20778;-75
2022/10/29 03:12:18;;;;;;;10.97;6.00;;;12.90;99.90;;;;;;5061618;28;20508;-74
2022/10/29 03:15:04;;;;;;;13.83;5.70;;;12.90;99.90;;;;;;5068335;28;20438;-75
2022/10/29 03:17:49;;;;;;;11.43;5.07;;;12.80;99.90;;;;;;5067586;28;20460;-75
2022/10/29 03:20:35;;;;;;;15.93;6.17;;;12.80;99.90;;;;;;5071151;28;20437;-74
2022/10/29 03:23:22;;;;;;;12.00;5.03;;;12.80;99.90;;;;;;5072350;28;20465;-75
2022/10/29 03:26:09;;;;;;;8.73;4.63;;;12.80;99.90;;;;;;5064412;28;20438;-74
2022/10/29 03:28:57;;;;;;;10.20;4.30;;;12.80;99.90;;;;;;5059641;28;20517;-75
2022/10/29 03:31:42;;;;;;;11.23;5.40;;;12.70;99.90;;;;;;5069697;28;20433;-75
2022/10/29 03:34:28;;;;;;;10.77;4.93;;;12.80;99.90;;;;;;5074367;28;20434;-75
2022/10/29 03:37:13;;;;;;;10.53;5.20;;;12.80;99.90;;;;;;5073873;28;20418;-74
2022/10/29 03:39:59;;;;;;;14.47;5.17;;;12.80;99.90;;;;;;5071887;28;20974;-73
2022/10/29 03:42:45;;;;;;;17.00;6.30;;;12.80;99.90;;;;;;5065380;28;20801;-75
2022/10/29 03:45:32;;;;;;;12.70;6.30;;;12.80;99.90;;;;;;5070984;28;20435;-75
2022/10/29 03:48:17;;;;;;;12.03;4.87;;;12.80;99.90;;;;;;5073121;28;20426;-75
2022/10/29 03:51:05;;;;;;;12.27;5.43;;;12.70;99.90;;;;;;5073026;28;20449;-75
2022/10/29 03:53:51;;;;;;;11.53;5.43;;;12.60;99.90;;;;;;5058157;28;20419;-76
2022/10/29 03:56:37;;;;;;;12.47;6.40;;;12.60;99.90;;;;;;5063492;28;21050;-75
2022/10/29 03:59:22;;;;;;;10.20;5.90;;;12.50;99.90;;;;;;5069484;28;20433;-75
2022/10/29 04:02:11;;;;;;;11.83;5.83;;;12.60;99.90;;;;;;5070503;28;20818;-75
2022/10/29 04:04:57;;;;;;;11.23;6.20;;;12.60;99.90;;;;;;5069209;28;20418;-74
2022/10/29 04:07:42;;;;;;;10.67;5.77;;;12.60;99.90;;;;;;5060421;28;20414;-75
2022/10/29 04:10:28;;;;;;;14.73;6.60;;;12.60;99.90;;;;;;5065982;28;20806;-74
2022/10/29 04:13:14;;;;;;;12.40;5.03;;;12.50;99.90;;;;;;5071760;28;20423;-72
2022/10/29 04:15:59;;;;;;;10.97;6.90;;;12.50;99.90;;;;;;5069241;28;20553;-73
2022/10/29 04:18:48;;;;;;;22.07;6.27;;;12.60;99.90;;;;;;5063157;28;20446;-73
2022/10/29 04:21:33;;;;;;;12.73;6.63;;;12.70;99.90;;;;;;5056300;28;20444;-73
2022/10/29 04:24:19;;;;;;;11.63;5.40;;;12.80;99.90;;;;;;5070717;28;20409;-73
2022/10/29 04:27:05;;;;;;;12.80;5.47;;;12.90;99.90;;;;;;5068740;28;20429;-73
2022/10/29 04:29:50;;;;;;;12.17;5.50;;;12.80;99.90;;;;;;5066000;28;20441;-73
2022/10/29 04:32:36;;;;;;;11.27;6.10;;;12.80;99.90;;;;;;5068229;28;20406;-72
2022/10/29 04:35:23;;;;;;;8.80;5.27;;;12.90;99.90;;;;;;5061445;28;20561;-73
2022/10/29 04:38:09;;;;;;;19.83;7.03;;;12.90;99.90;;;;;;5060574;28;20432;-73
2022/10/29 04:40:58;;;;;;;22.90;12.50;;;12.90;99.90;;;;;;5066077;28;20799;-72
2022/10/29 04:43:44;;;;;;;18.83;7.83;;;12.90;99.90;;;;;;5064570;28;20441;-73
2022/10/29 04:46:29;;;;;;;13.70;7.00;;;12.90;99.90;;;;;;5064076;28;20421;-73
2022/10/29 04:49:15;;;;;;;10.97;6.00;;;12.90;99.90;;;;;;5065111;28;20588;-72
2022/10/29 04:52:02;;;;;;;13.13;6.20;;;12.90;99.90;;;;;;5069970;28;20417;-73
2022/10/29 04:54:47;;;;;;;8.90;5.80;;;13.00;99.90;;;;;;5071261;28;20439;-73
2022/10/29 04:57:33;;;;;;;11.67;6.40;;;13.10;99.90;;;;;;5069993;28;20536;-73
2022/10/29 05:00:18;;;;;;;14.23;6.30;;;13.10;99.90;;;;;;5070743;28;20516;-73
2022/10/29 05:03:04;;;;;;;15.40;6.37;;;13.20;99.90;;;;;;5065642;28;21081;-72
2022/10/29 05:05:49;;;;;;;27.83;8.60;;;13.20;99.90;;;;;;5056190;28;20921;-73
2022/10/29 05:08:36;;;;;;;12.63;6.50;;;13.20;99.90;;;;;;5070287;28;20446;-73
2022/10/29 05:11:22;;;;;;;19.40;6.53;;;13.30;99.90;;;;;;5054490;28;20568;-72
2022/10/29 05:14:07;;;;;;;13.07;6.37;;;13.30;99.90;;;;;;5053937;28;20393;-72
2022/10/29 05:16:53;;;;;;;16.33;6.73;;;13.20;99.90;;;;;;5054728;28;20422;-73
2022/10/29 05:19:39;;;;;;;9.73;6.90;;;13.20;99.90;;;;;;5058490;28;20433;-72
2022/10/29 05:22:24;;;;;;;14.33;7.50;;;13.20;99.90;;;;;;5054144;28;20463;-72
2022/10/29 05:25:11;;;;;;;12.80;8.50;;;13.20;99.90;;;;;;5061419;28;20428;-73
2022/10/29 05:28:02;;;;;;;16.60;7.97;;;13.30;99.90;;;;;;5068235;28;20430;-73
2022/10/29 05:30:49;;;;;;;16.07;8.33;;;13.30;99.90;;;;;;5073425;28;20524;-73
2022/10/29 05:33:34;;;;;;;14.63;8.47;;;13.40;99.90;;;;;;5066158;28;20422;-73
2022/10/29 05:36:20;;;;;;;23.27;8.70;;;13.30;99.90;;;;;;5068750;28;20409;-73
2022/10/29 05:39:06;;;;;;;12.20;9.10;;;13.30;99.90;;;;;;5059254;28;20472;-73
2022/10/29 05:41:53;;;;;;;22.20;8.27;;;13.20;99.90;;;;;;5069715;28;20441;-73
2022/10/29 05:44:38;;;;;;;10.20;7.77;;;13.30;99.90;;;;;;5056058;28;20461;-72
2022/10/29 05:47:24;;;;;;;21.13;9.87;;;13.30;99.90;;;;;;5062915;28;20447;-72
2022/10/29 05:50:12;;;;;;;15.50;8.40;;;13.40;99.90;;;;;;5070850;28;20947;-73
2022/10/29 05:52:59;;;;;;;15.43;9.03;;;13.40;99.90;;;;;;5069923;28;20459;-73
2022/10/29 05:55:44;;;;;;;16.47;8.10;;;13.30;99.90;;;;;;5065526;28;20763;-72
2022/10/29 05:58:31;;;;;;;18.97;9.00;;;13.30;99.90;;;;;;5062639;28;20466;-72
2022/10/29 06:01:18;;;;;;;13.40;9.10;;;13.40;99.90;;;;;;5071827;28;20523;-73
2022/10/29 06:04:04;;;;;;;14.53;8.80;;;13.40;99.90;;;;;;5071862;28;20576;-74
2022/10/29 06:06:50;;;;;;;18.03;8.97;;;13.40;99.90;;;;;;5069449;28;21049;-73
2022/10/29 06:09:35;;;;;;;22.00;9.53;;;13.30;99.90;;;;;;5069903;28;21045;-73
2022/10/29 06:12:21;;;;;;;16.70;8.63;;;13.30;99.90;;;;;;5071640;28;20455;-73
2022/10/29 06:15:09;;;;;;;14.80;10.03;;;13.30;99.90;;;;;;5071648;28;20984;-73
2022/10/29 06:17:55;;;;;;;11.37;8.90;;;13.40;99.90;;;;;;5071344;28;20420;-73
2022/10/29 06:20:42;;;;;;;11.90;8.43;;;13.40;99.90;;;;;;5065323;28;20479;-73
2022/10/29 06:23:28;;;;;;;18.17;9.03;;;13.40;99.90;;;;;;5064760;28;20487;-73
2022/10/29 06:26:14;;;;;;;17.30;8.97;;;13.40;99.90;;;;;;5068774;28;20765;-73
2022/10/29 06:29:00;;;;;;;10.67;7.80;;;13.30;99.90;;;;;;5071230;28;20488;-73
2022/10/29 06:31:47;;;;;;;19.40;9.50;;;13.20;99.90;;;;;;5072957;28;20456;-73
2022/10/29 06:34:32;;;;;;;17.53;9.47;;;13.30;99.90;;;;;;5070899;28;20404;-73
2022/10/29 06:37:18;;;;;;;15.07;9.30;;;13.30;99.90;;;;;;5054964;28;20761;-72
2022/10/29 06:40:04;;;;;;;24.40;10.60;;;13.30;99.90;;;;;;5067019;28;20427;-73
2022/10/29 06:42:50;;;;;;;17.57;10.83;;;13.30;99.90;;;;;;5072857;28;20452;-73
2022/10/29 06:45:35;;;;;;;17.03;10.13;;;13.30;99.90;;;;;;5071083;28;20401;-73
2022/10/29 06:48:23;;;;;;;22.93;11.67;;;13.20;99.90;;;;;;5071334;28;20422;-72
2022/10/29 06:51:09;;;;;;;22.17;10.60;;;13.30;99.90;;;;;;5063189;28;20833;-73
2022/10/29 06:53:55;;;;;;;19.40;10.03;;;13.40;99.90;;;;;;5072076;28;20423;-73
2022/10/29 06:56:40;;;;;;;15.80;10.03;;;13.40;99.90;;;;;;5065688;28;20500;-73
2022/10/29 06:59:26;;;;;;;23.83;8.93;;;13.40;99.90;;;;;;5060621;28;20426;-73
2022/10/29 07:02:13;;;;;;;12.80;9.27;;;13.40;99.90;;;;;;5072309;28;20443;-73
2022/10/29 07:05:00;;;;;;;16.03;9.97;;;13.40;99.90;;;;;;5072310;28;20418;-72
2022/10/29 07:07:46;;;;;;;13.33;9.57;;;13.50;99.90;;;;;;5066338;28;20437;-72
2022/10/29 07:10:33;;;;;;;12.67;9.43;;;13.60;99.90;;;;;;5054437;28;22139;-73
2022/10/29 07:13:19;;;;;;;19.50;10.40;;;13.60;99.90;;;;;;5071545;28;20421;-72
2022/10/29 07:16:05;;;;;;;12.27;9.50;;;13.70;99.90;;;;;;5069994;28;20423;-73
2022/10/29 07:18:51;;;;;;;13.23;9.37;;;13.70;99.90;;;;;;5069562;28;20458;-73
2022/10/29 07:21:38;;;;;;;20.13;9.00;;;13.80;99.90;;;;;;5069681;28;20463;-73
2022/10/29 07:24:24;;;;;;;18.73;8.70;;;13.80;99.90;;;;;;5066817;28;22568;-73
2022/10/29 07:27:09;;;;;;;14.43;9.00;;;13.90;99.90;;;;;;5060143;28;20786;-73
2022/10/29 07:29:55;;;;;;;13.50;8.30;;;13.90;99.90;;;;;;5061446;28;20484;-73
2022/10/29 07:32:41;;;;;;;19.33;9.77;;;13.90;99.90;;;;;;5059742;28;20429;-73
2022/10/29 07:35:26;;;;;;;15.43;9.97;;;13.90;99.90;;;;;;5068077;28;20810;-74
2022/10/29 07:38:14;;;;;;;17.93;10.30;;;14.00;99.90;;;;;;5070233;28;20749;-72
2022/10/29 07:40:59;;;;;;;18.53;10.63;;;14.00;99.90;;;;;;5067177;28;20450;-73
2022/10/29 07:43:45;;;;;;;17.33;10.37;;;14.10;99.90;;;;;;5060159;28;20470;-73
2022/10/29 07:46:31;;;;;;;19.27;10.17;;;14.10;99.90;;;;;;5066785;28;20522;-73
2022/10/29 07:49:16;;;;;;;19.17;11.00;;;14.20;99.90;;;;;;5065302;28;20437;-72
2022/10/29 07:52:02;;;;;;;15.80;10.20;;;14.20;99.90;;;;;;5059186;28;20434;-72
2022/10/29 07:54:49;;;;;;;13.47;9.50;;;14.20;99.90;;;;;;5070138;28;20423;-73
2022/10/29 07:57:34;;;;;;;16.50;10.63;;;14.20;99.90;;;;;;5069576;28;20789;-72
2022/10/29 08:00:20;;;;;;;15.50;9.07;;;14.20;99.90;;;;;;5068969;28;20474;-73
2022/10/29 08:03:06;;;;;;;30.47;9.90;;;14.30;99.90;;;;;;5057497;28;20525;-73
2022/10/29 08:05:51;;;;;;;14.63;9.07;;;14.30;99.90;;;;;;5066436;28;20456;-74
2022/10/29 08:08:37;;;;;;;14.83;9.83;;;14.40;99.90;;;;;;5067670;28;20459;-73
2022/10/29 08:11:24;;;;;;;12.03;8.80;;;14.60;99.90;;;;;;5065935;28;20476;-73
2022/10/29 08:14:11;;;;;;;16.73;8.70;;;14.70;99.90;;;;;;5063840;28;20441;-73
2022/10/29 08:16:57;;;;;;;14.83;9.43;;;14.80;99.90;;;;;;5069813;28;20446;-73
2022/10/29 08:19:42;;;;;;;16.90;9.27;;;14.90;99.90;;;;;;5055123;28;20422;-73
2022/10/29 08:22:30;;;;;;;20.13;9.50;;;15.00;99.90;;;;;;5067812;28;20873;-73
2022/10/29 08:25:16;;;;;;;13.37;9.47;;;15.00;99.90;;;;;;5069962;28;20529;-73
2022/10/29 08:28:04;;;;;;;20.33;9.87;;;15.10;99.90;;;;;;5070013;28;20479;-73
2022/10/29 08:30:51;;;;;;;17.80;9.60;;;15.20;99.90;;;;;;5068834;28;20620;-73
2022/10/29 08:33:36;;;;;;;22.53;11.73;;;15.30;99.90;;;;;;5072147;28;20501;-73
2022/10/29 08:36:22;;;;;;;20.50;8.87;;;15.30;99.90;;;;;;5071300;28;20523;-73
2022/10/29 08:39:08;;;;;;;15.93;9.57;;;15.40;99.90;;;;;;5072134;28;20445;-72
2022/10/29 08:42:04;;;;;;;19.37;9.30;;;15.50;99.90;;;;;;5074473;28;20421;-72
2022/10/29 08:45:20;;;;;;;25.13;9.60;;;15.60;99.90;;;;;;5073057;28;20462;-71
2022/10/29 08:48:28;;;;;;;17.03;8.10;;;15.70;99.90;;;;;;5075233;28;20422;-72
2022/10/29 08:51:18;;;;;;;16.10;8.40;;;15.70;99.90;;;;;;5057969;28;20471;-71
2022/10/29 08:54:04;;;;;;;16.23;9.23;;;15.80;99.90;;;;;;5074491;28;20501;-72
2022/10/29 08:56:53;;;;;;;22.13;9.30;;;15.90;99.90;;;;;;5074243;28;20428;-71
2022/10/29 08:59:46;;;;;;;16.40;8.00;;;15.90;99.90;;;;;;5074741;28;20626;-72
2022/10/29 09:02:33;;;;;;;12.67;7.80;;;16.00;99.90;;;;;;5074303;28;20485;-72
2022/10/29 09:05:24;;;;;;;15.73;8.10;;;16.10;99.90;;;;;;5073998;28;20764;-72
2022/10/29 09:08:26;;;;;;;17.37;8.70;;;16.10;99.90;;;;;;5073449;28;20596;-72
2022/10/29 09:11:23;;;;;;;18.07;8.77;;;16.20;99.90;;;;;;5062587;28;20565;-71
2022/10/29 09:14:27;;;;;;;14.80;7.60;;;16.20;99.90;;;;;;5073768;28;20418;-70
2022/10/29 09:17:22;;;;;;;21.43;8.70;;;16.30;99.90;;;;;;5071640;28;20454;-71
2022/10/29 09:20:23;;;;;;;12.60;8.00;;;16.40;99.90;;;;;;5065902;28;20397;-71
2022/10/29 09:23:20;;;;;;;10.77;7.77;;;16.50;99.90;;;;;;5066921;28;20572;-71
2022/10/29 09:26:13;;;;;;;13.93;8.10;;;16.60;99.90;;;;;;5067126;28;20990;-72
2022/10/29 09:29:41;;;;;;;13.37;8.57;;;16.60;99.90;;;;;;5057742;28;20776;-71
2022/10/29 09:32:32;;;;;;;15.27;8.87;;;16.80;99.90;;;;;;5033197;28;20454;-71
2022/10/29 09:35:21;;;;;;;16.47;8.40;;;16.90;99.90;;;;;;5053211;28;20398;-72
2022/10/29 09:38:14;;;;;;;14.40;9.57;;;17.10;99.90;;;;;;5069436;28;20940;-71
2022/10/29 09:41:02;;;;;;;17.33;8.20;;;17.30;99.90;;;;;;5066604;28;20858;-71
2022/10/29 09:43:54;;;;;;;24.33;8.53;;;17.50;99.90;;;;;;5061907;28;20456;-71
2022/10/29 09:46:47;;;;;;;13.40;7.67;;;17.80;99.90;;;;;;5071764;28;20454;-71
2022/10/29 09:49:42;;;;;;;20.80;8.77;;;18.00;99.90;;;;;;5069275;28;20469;-73
2022/10/29 09:52:32;;;;;;;17.30;8.03;;;18.20;99.90;;;;;;5070570;28;20812;-72
2022/10/29 09:55:23;;;;;;;13.00;7.73;;;18.40;99.90;;;;;;5071545;28;20485;-72
2022/10/29 09:58:19;;;;;;;13.50;6.77;;;18.60;99.90;;;;;;5060148;28;20484;-71
2022/10/29 10:01:05;;;;;;;14.77;7.27;;;18.80;99.90;;;;;;5056470;28;20446;-72
2022/10/29 10:03:57;;;;;;;22.33;6.93;;;19.10;99.90;;;;;;5073443;28;20465;-72
2022/10/29 10:07:01;;;;;;;18.47;7.27;;;19.40;99.90;;;;;;5072638;28;20907;-72
2022/10/29 10:09:56;;;;;;;13.80;6.67;;;19.60;99.90;;;;;;5072837;28;20424;-72
2022/10/29 10:12:46;;;;;;;15.00;6.73;;;19.80;99.90;;;;;;5089061;22;20483;-72
2022/10/29 10:15:34;;;;;;;13.53;6.73;;;19.90;99.90;;;;;;5073059;28;20419;-74
2022/10/29 10:18:22;;;;;;;14.30;6.10;;;20.00;99.90;;;;;;5060244;28;20442;-74
2022/10/29 10:21:11;;;;;;;24.97;6.57;;;20.20;99.90;;;;;;5053126;28;20424;-73
2022/10/29 10:23:57;;;;;;;18.73;5.93;;;20.30;99.90;;;;;;5059236;28;20576;-73
2022/10/29 10:26:45;;;;;;;22.53;5.73;;;20.40;99.90;;;;;;5061810;28;20423;-73
2022/10/29 10:29:30;;;;;;;15.73;5.30;;;20.50;99.90;;;;;;5052991;28;20412;-73
2022/10/29 10:32:17;;;;;;;15.60;5.50;;;20.70;99.90;;;;;;5062267;28;20443;-74
2022/10/29 10:35:02;;;;;;;10.60;5.50;;;20.80;99.90;;;;;;5070527;28;20967;-74
2022/10/29 10:37:48;;;;;;;12.27;5.20;;;20.90;99.90;;;;;;5060666;28;20447;-73
2022/10/29 10:40:34;;;;;;;15.13;4.73;;;21.00;99.90;;;;;;5072521;28;20482;-74
2022/10/29 10:43:24;;;;;;;17.43;5.00;;;21.10;99.90;;;;;;5065849;28;20495;-74
2022/10/29 10:46:16;;;;;;;19.87;4.80;;;21.20;99.90;;;;;;5070223;28;20458;-74
2022/10/29 10:49:06;;;;;;;14.10;5.20;;;21.30;99.90;;;;;;5059718;28;20562;-74
2022/10/29 10:51:53;;;;;;;16.63;6.00;;;21.30;99.90;;;;;;5058693;28;20462;-73
2022/10/29 10:54:41;;;;;;;10.10;4.97;;;21.20;99.90;;;;;;5063286;28;20450;-74
2022/10/29 10:57:30;;;;;;;10.67;4.60;;;21.30;99.90;;;;;;5060206;28;20540;-74
2022/10/29 11:00:20;;;;;;;9.97;4.80;;;21.30;99.90;;;;;;5059683;28;20516;-74
2022/10/29 11:03:18;;;;;;;11.73;4.40;;;21.40;99.90;;;;;;5064468;28;20536;-73
2022/10/29 11:06:07;;;;;;;17.27;5.00;;;21.50;99.90;;;;;;5060800;28;20528;-73
2022/10/29 11:08:58;;;;;;;16.97;5.37;;;21.50;99.90;;;;;;5062349;28;20436;-74
2022/10/29 11:11:47;;;;;;;11.63;4.03;;;21.40;99.90;;;;;;5057837;28;20578;-74
2022/10/29 11:14:41;;;;;;;15.23;5.63;;;21.30;99.90;;;;;;5066374;28;20459;-77
2022/10/29 11:17:35;;;;;;;15.40;5.90;;;21.20;99.90;;;;;;5059991;28;20467;-76
2022/10/29 11:20:24;;;;;;;14.43;4.70;;;21.10;99.90;;;;;;5057381;28;20474;-75
2022/10/29 11:23:23;;;;;;;9.00;4.30;;;21.00;99.90;;;;;;5058224;28;20830;-76
2022/10/29 11:26:14;;;;;;;13.37;7.03;;;21.00;99.90;;;;;;5066664;28;20533;-76
2022/10/29 11:29:11;;;;;;;11.20;5.40;;;21.00;99.90;;;;;;5059820;28;20587;-76
2022/10/29 11:32:02;;;;;;;11.13;4.83;;;21.00;99.90;;;;;;5060694;28;20471;-76
2022/10/29 11:34:56;;;;;;;7.00;4.13;;;21.00;99.90;;;;;;5065567;28;20423;-75
2022/10/29 11:37:48;;;;;;;15.80;5.20;;;21.00;99.90;;;;;;5058026;28;20448;-76
2022/10/29 11:40:42;;;;;;;22.40;8.20;;;20.90;99.90;;;;;;5056755;28;20845;-76
2022/10/29 11:43:27;;;;;;;13.00;6.13;;;20.80;99.90;;;;;;5059531;28;20459;-76
2022/10/29 11:46:22;;;;;;;12.30;6.10;;;20.70;99.90;;;;;;5057699;28;20481;-75
2022/10/29 11:49:24;;;;;;;9.13;5.20;;;20.70;99.90;;;;;;5061574;28;20443;-76
2022/10/29 11:52:14;;;;;;;15.37;5.97;;;20.60;99.90;;;;;;5062990;28;20466;-76
2022/10/29 11:55:14;;;;;;;10.53;4.87;;;20.50;99.90;;;;;;5065745;28;20426;-76
2022/10/29 11:58:03;;;;;;;19.20;5.80;;;20.50;99.90;;;;;;5067428;28;21034;-75
2022/10/29 12:00:56;;;;;;;14.37;5.53;;;20.40;99.90;;;;;;5059954;28;20768;-76
2022/10/29 12:04:08;;;;;;;18.20;5.07;;;20.40;99.90;;;;;;5071348;28;20944;-76
2022/10/29 12:07:09;;;;;;;13.77;4.47;;;20.30;99.90;;;;;;5057230;28;20398;-76
2022/10/29 12:10:21;;;;;;;20.17;6.50;;;20.30;99.90;;;;;;5062481;28;20446;-76
2022/10/29 12:13:18;;;;;;;11.30;4.00;;;20.20;99.90;;;;;;5060549;28;20579;-76
2022/10/29 12:16:16;;;;;;;12.37;5.77;;;20.20;99.90;;;;;;5061019;28;20424;-75
2022/10/29 12:19:09;;;;;;;19.30;5.33;;;20.20;99.90;;;;;;5063437;28;20417;-76
2022/10/29 12:22:03;;;;;;;11.93;4.87;;;20.20;99.90;;;;;;5059364;28;20573;-76
2022/10/29 12:25:06;;;;;;;19.20;6.33;;;20.20;99.90;;;;;;5063789;28;20498;-76
2022/10/29 12:28:05;;;;;;;14.03;6.80;;;20.20;99.90;;;;;;5065623;28;20446;-75
2022/10/29 12:31:06;;;;;;;17.00;5.73;;;20.30;99.90;;;;;;5059189;28;20616;-76
2022/10/29 12:33:59;;;;;;;11.33;5.77;;;20.30;99.90;;;;;;5064047;28;20427;-76
2022/10/29 12:36:50;;;;;;;16.40;4.70;;;20.30;99.90;;;;;;5070514;28;20426;-76
2022/10/29 12:39:43;;;;;;;9.73;5.27;;;20.40;99.90;;;;;;5062642;28;20446;-76
2022/10/29 12:42:30;;;;;;;21.13;7.17;;;20.50;99.90;;;;;;5060097;28;20461;-75
2022/10/29 12:45:32;;;;;;;14.00;5.13;;;20.50;99.90;;;;;;5061845;28;20969;-76
2022/10/29 12:48:24;;;;;;;17.53;5.40;;;20.50;99.90;;;;;;5058027;28;20573;-76
2022/10/29 12:51:17;;;;;;;20.03;4.97;;;20.50;99.90;;;;;;5060589;28;20512;-76
2022/10/29 12:54:19;;;;;;;11.87;5.37;;;20.50;99.90;;;;;;5063551;28;20447;-76
2022/10/29 12:57:17;;;;;;;12.10;4.87;;;20.60;99.90;;;;;;5065870;28;20541;-75
2022/10/29 13:00:44;;;;;;;17.70;4.90;;;20.60;99.90;;;;;;5063497;28;20446;-75
2022/10/29 13:03:58;;;;;;;17.07;5.60;;;20.70;99.90;;;;;;5063978;28;20453;-76
2022/10/29 13:06:56;;;;;;;15.30;5.40;;;20.80;99.90;;;;;;5058945;28;20427;-76
2022/10/29 13:09:41;;;;;;;13.40;4.90;;;20.90;99.90;;;;;;5059695;28;20473;-75
2022/10/29 13:12:56;;;;;;;16.37;6.10;;;21.10;99.90;;;;;;5056886;28;20844;-76
2022/10/29 13:15:45;;;;;;;18.23;5.50;;;21.30;99.90;;;;;;5062321;28;20908;-76
2022/10/29 13:18:43;;;;;;;13.87;5.53;;;21.40;99.90;;;;;;5060529;28;20517;-76
2022/10/29 13:21:54;;;;;;;9.50;4.40;;;21.60;99.90;;;;;;5059682;28;20466;-76
2022/10/29 13:24:40;;;;;;;13.70;5.20;;;21.70;99.90;;;;;;5054700;28;20611;-76
2022/10/29 13:27:35;;;;;;;11.60;5.80;;;21.80;99.90;;;;;;5063737;28;21058;-76
2022/10/29 13:30:24;;;;;;;13.80;6.60;;;22.00;99.90;;;;;;5066322;28;20458;-75
2022/10/29 13:33:42;;;;;;;16.40;7.37;;;22.10;99.90;;;;;;5063352;28;20959;-73
2022/10/29 13:36:39;;;;;;;16.43;5.50;;;22.20;99.90;;;;;;5064430;28;20766;-73
2022/10/29 13:39:24;;;;;;;21.60;5.47;;;22.20;99.90;;;;;;5062718;28;20448;-74
2022/10/29 13:42:12;;;;;;;10.63;5.70;;;22.20;99.90;;;;;;5065652;28;20490;-74
2022/10/29 13:44:58;;;;;;;13.43;7.20;;;22.30;99.90;;;;;;5060486;28;20467;-75
2022/10/29 13:47:45;;;;;;;12.60;6.07;;;22.20;99.90;;;;;;5065960;28;20821;-75
2022/10/29 13:50:32;;;;;;;15.40;5.87;;;22.10;99.90;;;;;;5067414;28;20447;-74
2022/10/29 13:53:25;;;;;;;21.67;5.10;;;21.90;99.90;;;;;;5066648;28;20500;-75
2022/10/29 13:56:17;;;;;;;16.03;5.47;;;21.80;99.90;;;;;;5056582;28;20455;-74
2022/10/29 13:59:09;;;;;;;10.37;5.40;;;21.70;99.90;;;;;;5064407;28;20940;-75
2022/10/29 14:02:05;;;;;;;17.97;5.20;;;21.60;99.90;;;;;;5063755;28;20451;-75
2022/10/29 14:04:55;;;;;;;14.63;4.63;;;21.60;99.90;;;;;;5070861;28;21011;-75
2022/10/29 14:07:47;;;;;;;14.50;6.10;;;21.60;99.90;;;;;;5062927;28;20593;-75
2022/10/29 14:10:42;;;;;;;14.43;5.50;;;21.50;99.90;;;;;;5061488;28;20907;-75
2022/10/29 14:13:31;;;;;;;12.80;5.60;;;21.40;99.90;;;;;;5069496;28;20460;-75
2022/10/29 14:16:19;;;;;;;10.50;4.93;;;21.40;99.90;;;;;;5061225;28;20499;-75
2022/10/29 14:19:14;;;;;;;14.50;4.97;;;21.30;99.90;;;;;;5069585;28;20916;-75
2022/10/29 14:22:00;;;;;;;11.40;4.57;;;21.30;99.90;;;;;;5068934;28;20446;-75
2022/10/29 14:24:45;;;;;;;19.27;5.10;;;21.20;99.90;;;;;;5054731;28;20510;-74
2022/10/29 14:27:32;;;;;;;18.40;6.53;;;21.10;99.90;;;;;;5058598;28;20466;-74
2022/10/29 14:30:20;;;;;;;16.30;5.23;;;21.00;99.90;;;;;;5066202;28;20498;-73